Time;durP1;ratioP1;P1;durP2;ratioP2;P2;SDS_P1;SDS_P2;PMS_P1;PMS_P2;Temp;Humidity;BMP_temperature;BMP_pressure;BME280_temperature;BME280_humidity;BME280_pressure;Samples;Min_cycle;Max_cycle;Signal;HPM_P1;HPM_P2
2022/06/17 00:01:13;;;;;;;2.30;1.27;;;23.20;84.80;;;;;;5035156;28;20036;-86
2022/06/17 00:03:38;;;;;;;3.53;1.20;;;23.20;84.90;;;;;;5035213;28;20409;-86
2022/06/17 00:06:05;;;;;;;2.30;1.30;;;23.10;84.90;;;;;;5035197;28;20104;-87
2022/06/17 00:08:39;;;;;;;2.58;1.17;;;23.10;84.90;;;;;;5035837;28;20021;-87
2022/06/17 00:11:32;;;;;;;2.20;1.20;;;23.10;85.10;;;;;;5052950;28;20070;-86
2022/06/17 00:13:59;;;;;;;3.25;1.10;;;23.10;85.50;;;;;;5050042;28;20496;-86
2022/06/17 00:16:26;;;;;;;4.35;1.10;;;23.10;85.50;;;;;;5053053;28;20491;-87
2022/06/17 00:18:52;;;;;;;10.23;1.40;;;23.10;85.60;;;;;;5052731;28;20029;-87
2022/06/17 00:21:24;;;;;;;3.60;1.10;;;23.10;85.20;;;;;;5034913;28;20060;-87
2022/06/17 00:23:49;;;;;;;6.95;1.38;;;23.10;85.30;;;;;;5034916;28;20476;-87
2022/06/17 00:26:15;;;;;;;2.00;0.90;;;23.10;85.10;;;;;;5052605;28;20075;-87
2022/06/17 00:28:41;;;;;;;1.88;1.02;;;23.10;85.30;;;;;;5034770;28;20025;-86
2022/06/17 00:31:06;;;;;;;3.72;1.27;;;23.10;85.60;;;;;;5035483;28;20036;-87
2022/06/17 00:33:32;;;;;;;10.15;1.35;;;23.10;85.70;;;;;;5034695;28;20499;-87
2022/06/17 00:35:58;;;;;;;2.65;1.20;;;23.00;85.60;;;;;;5034733;28;20036;-87
2022/06/17 00:38:28;;;;;;;5.80;1.27;;;23.00;85.60;;;;;;5034528;28;20045;-87
2022/06/17 00:40:55;;;;;;;2.75;1.10;;;23.00;85.80;;;;;;5034981;28;20024;-87
2022/06/17 00:43:29;;;;;;;3.08;1.25;;;23.00;85.60;;;;;;5034595;28;20032;-87
2022/06/17 00:46:05;;;;;;;4.53;1.10;;;23.00;85.40;;;;;;5034699;28;20433;-87
2022/06/17 00:48:49;;;;;;;3.63;1.27;;;23.00;85.30;;;;;;5035541;28;20029;-86
2022/06/17 00:51:23;;;;;;;5.00;1.27;;;23.00;85.00;;;;;;5052404;28;20489;-86
2022/06/17 00:54:01;;;;;;;2.38;1.00;;;22.90;85.00;;;;;;5052372;28;20036;-87
2022/06/17 00:56:32;;;;;;;2.92;0.80;;;22.90;85.00;;;;;;5053252;28;20025;-87
2022/06/17 00:59:08;;;;;;;3.63;1.35;;;22.90;85.20;;;;;;5038123;28;20052;-87
2022/06/17 01:02:05;;;;;;;3.03;1.25;;;22.90;85.90;;;;;;5038073;28;20021;-87
2022/06/17 01:04:48;;;;;;;4.95;1.30;;;22.90;85.10;;;;;;5038045;28;20037;-87
2022/06/17 01:07:25;;;;;;;4.47;1.02;;;22.90;85.10;;;;;;5056262;28;20419;-87
2022/06/17 01:09:57;;;;;;;3.08;0.88;;;22.90;85.10;;;;;;5055916;28;20029;-87
2022/06/17 01:12:26;;;;;;;4.97;1.10;;;22.90;85.20;;;;;;5037903;28;20033;-87
2022/06/17 01:14:53;;;;;;;4.50;1.27;;;22.80;84.90;;;;;;5055635;28;20052;-86
2022/06/17 01:17:20;;;;;;;2.45;0.80;;;22.90;84.80;;;;;;5055700;28;20019;-87
2022/06/17 01:19:47;;;;;;;1.52;0.90;;;22.80;85.00;;;;;;5038561;28;20413;-86
2022/06/17 01:22:21;;;;;;;3.70;1.10;;;22.80;85.20;;;;;;5037619;28;20021;-86
2022/06/17 01:24:49;;;;;;;1.75;1.15;;;22.80;85.20;;;;;;5055666;28;20021;-87
2022/06/17 01:27:22;;;;;;;3.30;1.17;;;22.80;85.30;;;;;;5037658;28;20025;-87
2022/06/17 01:29:49;;;;;;;4.25;1.10;;;22.80;85.30;;;;;;5055573;28;20395;-86
2022/06/17 01:32:17;;;;;;;2.40;0.90;;;22.80;85.30;;;;;;5037626;28;20032;-87
2022/06/17 01:34:42;;;;;;;3.40;1.33;;;22.70;85.10;;;;;;5037502;28;20499;-86
2022/06/17 01:37:10;;;;;;;3.75;1.55;;;22.70;84.90;;;;;;5037514;28;20016;-87
2022/06/17 01:39:36;;;;;;;1.38;0.82;;;22.70;84.80;;;;;;5037373;28;20040;-86
2022/06/17 01:42:03;;;;;;;7.03;0.95;;;22.70;85.00;;;;;;5037331;28;20408;-86
2022/06/17 01:44:33;;;;;;;6.47;1.10;;;22.70;85.30;;;;;;5037260;28;20029;-87
2022/06/17 01:47:01;;;;;;;3.08;1.30;;;22.70;85.20;;;;;;5037324;28;20480;-86
2022/06/17 01:49:49;;;;;;;3.28;1.20;;;22.70;85.20;;;;;;5037185;28;20405;-87
2022/06/17 01:52:22;;;;;;;2.90;0.90;;;22.60;85.30;;;;;;5054712;28;20124;-87
2022/06/17 01:54:53;;;;;;;2.55;0.98;;;22.60;85.10;;;;;;5037054;28;20112;-87
2022/06/17 01:57:27;;;;;;;2.17;1.00;;;22.60;85.30;;;;;;5037112;28;20017;-87
2022/06/17 02:00:13;;;;;;;3.25;1.10;;;22.60;85.30;;;;;;5054864;28;20428;-87
2022/06/17 02:02:40;;;;;;;8.07;1.30;;;22.60;85.40;;;;;;5037267;28;20473;-87
2022/06/17 02:05:08;;;;;;;3.80;0.90;;;22.60;85.10;;;;;;5054836;28;20546;-87
2022/06/17 02:07:55;;;;;;;4.38;1.10;;;22.60;85.10;;;;;;5054744;28;20032;-86
2022/06/17 02:10:28;;;;;;;3.67;1.20;;;22.50;85.20;;;;;;5036525;28;20039;-86
2022/06/17 02:12:55;;;;;;;3.17;1.20;;;22.60;85.20;;;;;;5054701;28;20535;-87
2022/06/17 02:15:21;;;;;;;3.42;1.05;;;22.50;85.10;;;;;;5054690;28;20025;-87
2022/06/17 02:17:49;;;;;;;4.78;1.13;;;22.50;85.20;;;;;;5036765;28;20024;-87
2022/06/17 02:20:17;;;;;;;1.38;1.05;;;22.50;85.10;;;;;;5054622;28;20028;-87
2022/06/17 02:22:44;;;;;;;2.03;0.98;;;22.50;85.50;;;;;;5036617;28;20048;-87
2022/06/17 02:25:17;;;;;;;2.75;1.05;;;22.50;85.50;;;;;;5054570;28;20024;-86
2022/06/17 02:27:44;;;;;;;3.70;1.10;;;22.50;85.50;;;;;;5036567;28;20083;-87
2022/06/17 02:30:11;;;;;;;3.50;1.15;;;22.50;85.80;;;;;;5054502;28;20031;-87
2022/06/17 02:32:39;;;;;;;2.80;1.10;;;22.50;85.90;;;;;;5036415;28;20481;-86
2022/06/17 02:35:19;;;;;;;2.10;1.00;;;22.40;85.70;;;;;;5054093;28;20032;-87
2022/06/17 02:37:45;;;;;;;2.85;0.95;;;22.40;85.80;;;;;;5036014;28;20029;-86
2022/06/17 02:40:30;;;;;;;2.58;1.10;;;22.40;85.70;;;;;;5054209;28;20472;-86
2022/06/17 02:42:59;;;;;;;1.95;1.02;;;22.40;85.90;;;;;;5036203;28;20515;-86
2022/06/17 02:45:28;;;;;;;1.48;0.75;;;22.40;85.80;;;;;;5054128;28;20480;-87
2022/06/17 03:39:31;;;;;;;2.22;0.90;;;22.10;86.10;;;;;;5046984;28;20028;-87
2022/06/17 03:42:05;;;;;;;3.92;1.05;;;22.10;86.20;;;;;;5015694;28;20038;-87
2022/06/17 03:44:39;;;;;;;2.70;1.02;;;22.10;86.30;;;;;;5015553;28;20124;-87
2022/06/17 03:47:20;;;;;;;;;;;22.10;86.30;;;;;;5015930;28;20094;-87
2022/06/17 03:50:02;;;;;;;3.38;1.35;;;22.10;86.40;;;;;;5015516;28;19912;-87
2022/06/17 03:52:44;;;;;;;4.97;1.52;;;22.10;86.30;;;;;;5015533;28;20036;-87
2022/06/17 03:55:15;;;;;;;2.28;1.10;;;22.10;86.40;;;;;;5015464;28;20052;-87
2022/06/17 03:57:44;;;;;;;4.53;1.50;;;22.10;86.60;;;;;;5015375;28;20103;-86
2022/06/17 04:00:38;;;;;;;3.85;1.30;;;22.00;86.40;;;;;;5033143;28;20405;-87
2022/06/17 04:03:10;;;;;;;3.83;1.33;;;22.00;87.30;;;;;;5019965;28;20485;-86
2022/06/17 04:05:38;;;;;;;2.15;1.08;;;22.00;86.50;;;;;;5033325;28;20032;-87
2022/06/17 04:08:04;;;;;;;4.38;1.27;;;22.00;86.50;;;;;;5015257;28;20487;-87
2022/06/17 04:10:31;;;;;;;4.15;1.50;;;22.00;86.50;;;;;;5033030;28;20025;-87
2022/06/17 04:12:57;;;;;;;3.00;1.10;;;22.00;86.60;;;;;;5015218;28;20029;-87
2022/06/17 04:15:57;;;;;;;2.90;1.27;;;22.00;86.70;;;;;;5015205;28;20033;-87
2022/06/17 04:18:23;;;;;;;4.03;1.30;;;22.00;86.70;;;;;;5015508;28;20507;-86
2022/06/17 04:20:54;;;;;;;4.97;0.90;;;22.00;86.80;;;;;;5015236;28;20022;-86
2022/06/17 04:23:24;;;;;;;2.05;1.15;;;22.00;86.90;;;;;;5015235;28;20017;-87
2022/06/17 04:25:49;;;;;;;2.28;1.08;;;22.00;86.90;;;;;;5015135;28;20030;-86
2022/06/17 04:28:25;;;;;;;1.88;1.13;;;22.00;86.90;;;;;;5032808;28;20029;-87
2022/06/17 04:30:58;;;;;;;3.80;1.38;;;21.90;86.90;;;;;;5015345;28;20025;-87
2022/06/17 04:33:38;;;;;;;2.60;1.20;;;21.90;87.60;;;;;;5018822;28;20507;-87
2022/06/17 04:36:32;;;;;;;6.35;1.38;;;21.90;87.00;;;;;;5019415;28;20444;-87
2022/06/17 04:39:06;;;;;;;1.27;0.90;;;21.90;87.00;;;;;;5026845;28;20033;-86
2022/06/17 04:41:34;;;;;;;;;;;21.90;87.10;;;;;;5037014;28;20053;-86
2022/06/17 04:44:03;;;;;;;2.80;1.15;;;21.90;87.20;;;;;;5036421;28;19904;-86
2022/06/17 04:46:46;;;;;;;2.72;0.95;;;21.90;87.20;;;;;;5018613;28;20021;-87
2022/06/17 04:49:20;;;;;;;4.85;1.20;;;21.90;87.30;;;;;;5018577;28;20053;-87
2022/06/17 04:51:46;;;;;;;3.22;1.30;;;21.90;87.40;;;;;;5018457;28;20029;-87
2022/06/17 04:54:12;;;;;;;3.60;1.30;;;21.90;87.50;;;;;;5018467;28;20552;-87
2022/06/17 04:56:48;;;;;;;2.00;1.05;;;21.90;87.60;;;;;;5018474;28;20562;-87
2022/06/17 04:59:30;;;;;;;2.67;1.10;;;21.90;87.60;;;;;;5018343;28;20049;-87
2022/06/17 05:01:57;;;;;;;3.22;1.40;;;21.90;87.70;;;;;;5018393;28;20025;-86
2022/06/17 05:04:23;;;;;;;2.67;1.00;;;21.80;87.60;;;;;;5036039;28;20116;-87
2022/06/17 05:06:49;;;;;;;2.47;1.17;;;21.90;87.70;;;;;;5018273;28;20030;-87
2022/06/17 05:09:25;;;;;;;3.40;1.35;;;21.90;87.70;;;;;;5018250;28;20026;-87
2022/06/17 05:11:59;;;;;;;4.78;1.60;;;21.90;87.70;;;;;;5018273;28;20464;-86
2022/06/17 05:14:27;;;;;;;3.60;1.17;;;21.80;87.70;;;;;;5036161;28;20079;-86
2022/06/17 05:16:54;;;;;;;3.00;1.00;;;21.80;87.80;;;;;;5018405;28;20028;-86
2022/06/17 05:19:21;;;;;;;2.45;1.05;;;21.90;88.00;;;;;;5035817;28;20048;-87
2022/06/17 05:21:46;;;;;;;4.30;1.23;;;21.90;88.00;;;;;;5018226;28;20468;-87
2022/06/17 05:24:12;;;;;;;4.50;1.30;;;21.90;88.00;;;;;;5035745;28;20025;-87
2022/06/17 05:26:38;;;;;;;5.13;1.10;;;21.80;88.00;;;;;;5035722;28;20029;-87
2022/06/17 05:29:06;;;;;;;2.70;1.20;;;21.80;88.00;;;;;;5035934;28;20032;-87
2022/06/17 05:31:32;;;;;;;3.05;1.10;;;21.90;88.20;;;;;;5017768;28;20033;-87
2022/06/17 05:33:57;;;;;;;3.28;1.27;;;21.80;88.30;;;;;;5035434;28;20381;-87
2022/06/17 05:36:23;;;;;;;3.13;1.33;;;21.80;88.40;;;;;;5017827;28;20374;-87
2022/06/17 05:38:49;;;;;;;5.00;1.10;;;21.90;88.50;;;;;;5017562;28;20026;-86
2022/06/17 05:41:16;;;;;;;2.50;1.17;;;21.90;88.50;;;;;;5035438;28;20025;-86
2022/06/17 05:43:42;;;;;;;4.55;1.38;;;21.90;88.60;;;;;;5016598;28;20029;-87
2022/06/17 05:46:08;;;;;;;4.63;1.33;;;21.90;89.50;;;;;;5018545;28;20036;-87
2022/06/17 05:48:33;;;;;;;7.40;1.20;;;21.90;88.90;;;;;;5017566;28;20037;-87
2022/06/17 05:50:59;;;;;;;5.97;1.00;;;21.90;89.10;;;;;;5017542;28;20030;-86
2022/06/17 05:53:25;;;;;;;3.28;1.30;;;21.90;89.10;;;;;;5017478;28;20035;-87
2022/06/17 05:55:54;;;;;;;3.10;1.27;;;21.90;90.00;;;;;;5017365;28;20044;-86
2022/06/17 05:58:20;;;;;;;2.70;1.30;;;21.90;89.30;;;;;;5017302;28;20024;-87
2022/06/17 06:00:46;;;;;;;2.22;1.20;;;21.90;89.40;;;;;;5035103;28;20489;-87
2022/06/17 06:03:24;;;;;;;3.00;1.30;;;21.90;89.40;;;;;;5034856;28;20473;-86
2022/06/17 06:05:53;;;;;;;1.88;1.10;;;21.90;89.60;;;;;;5035346;28;20493;-87
2022/06/17 06:08:19;;;;;;;1.80;1.05;;;22.00;89.70;;;;;;5017122;28;20087;-87
2022/06/17 06:10:45;;;;;;;2.15;1.02;;;22.00;89.70;;;;;;5017768;28;20056;-87
2022/06/17 06:13:17;;;;;;;2.72;1.02;;;22.00;89.60;;;;;;5017168;28;20041;-86
2022/06/17 06:15:46;;;;;;;2.60;0.95;;;21.90;89.50;;;;;;5017025;28;20366;-87
2022/06/17 06:18:21;;;;;;;2.65;1.00;;;22.00;89.60;;;;;;5017082;28;20499;-86
2022/06/17 06:20:48;;;;;;;2.70;1.17;;;22.00;90.10;;;;;;5017318;28;20022;-86
2022/06/17 06:23:13;;;;;;;1.83;1.13;;;22.00;89.50;;;;;;5034600;28;20500;-86
2022/06/17 06:25:40;;;;;;;2.60;1.10;;;22.00;90.10;;;;;;5034641;28;20017;-86
2022/06/17 06:28:31;;;;;;;0.85;0.80;;;22.00;89.70;;;;;;5034653;28;20029;-87
2022/06/17 06:31:05;;;;;;;2.17;1.00;;;22.00;89.60;;;;;;5012509;28;20056;-86
2022/06/17 06:33:31;;;;;;;3.37;1.20;;;22.00;89.60;;;;;;5034685;28;20472;-86
2022/06/17 06:35:56;;;;;;;1.35;1.00;;;22.00;89.70;;;;;;5016405;28;20290;-87
2022/06/17 06:38:22;;;;;;;1.20;0.93;;;22.10;89.70;;;;;;5016572;28;20385;-86
2022/06/17 06:40:48;;;;;;;3.38;1.17;;;22.10;89.60;;;;;;5034066;28;20459;-87
2022/06/17 06:43:20;;;;;;;3.17;1.08;;;22.10;89.80;;;;;;5016468;28;20392;-86
2022/06/17 06:45:49;;;;;;;2.58;1.10;;;22.10;89.70;;;;;;5034264;28;20076;-86
2022/06/17 06:48:17;;;;;;;1.45;1.10;;;22.10;89.90;;;;;;5016451;28;20049;-87
2022/06/17 06:50:43;;;;;;;2.30;1.20;;;22.10;89.80;;;;;;5016305;28;20044;-88
2022/06/17 06:53:09;;;;;;;2.45;1.10;;;22.10;89.80;;;;;;5016291;28;20029;-87
2022/06/17 06:55:36;;;;;;;3.83;1.00;;;22.10;89.80;;;;;;5016011;28;20060;-87
2022/06/17 06:58:23;;;;;;;2.38;1.00;;;22.20;90.00;;;;;;5016206;28;20029;-86
2022/06/17 07:00:58;;;;;;;2.50;1.30;;;22.20;90.00;;;;;;5016043;28;20040;-86
2022/06/17 07:03:27;;;;;;;2.30;1.30;;;22.20;90.00;;;;;;5016211;28;20112;-86
2022/06/17 07:05:56;;;;;;;8.15;1.10;;;22.10;90.00;;;;;;5016110;28;20097;-86
2022/06/17 07:08:24;;;;;;;5.18;1.30;;;22.10;89.90;;;;;;5033713;28;20033;-86
2022/06/17 07:10:52;;;;;;;3.33;1.33;;;22.20;90.00;;;;;;5033744;28;20017;-86
2022/06/17 07:13:19;;;;;;;6.78;1.10;;;22.20;90.10;;;;;;5015935;28;20132;-86
2022/06/17 07:15:46;;;;;;;3.40;1.20;;;22.10;90.00;;;;;;5015839;28;20025;-86
2022/06/17 07:18:14;;;;;;;5.03;1.30;;;22.20;90.10;;;;;;5033529;28;20026;-86
2022/06/17 07:20:43;;;;;;;2.33;1.23;;;22.20;90.00;;;;;;5033558;28;20025;-87
2022/06/17 07:23:13;;;;;;;4.45;1.40;;;22.20;90.10;;;;;;5033443;28;20579;-86
2022/06/17 07:25:40;;;;;;;3.67;1.40;;;22.20;90.10;;;;;;5015692;28;20033;-86
2022/06/17 07:28:06;;;;;;;3.53;1.13;;;22.20;90.20;;;;;;5015649;28;20026;-86
2022/06/17 07:30:33;;;;;;;3.63;1.42;;;22.20;90.10;;;;;;5015665;28;20044;-86
2022/06/17 07:33:00;;;;;;;4.40;1.27;;;22.20;90.20;;;;;;5015572;28;20499;-86
2022/06/17 07:35:25;;;;;;;3.15;1.25;;;22.20;90.20;;;;;;5015467;28;20025;-86
2022/06/17 07:40:36;;;;;;;1.70;1.30;;;22.20;90.10;;;;;;5033122;28;20095;-86
2022/06/17 07:43:03;;;;;;;4.68;1.17;;;22.20;90.10;;;;;;5015562;28;20040;-87
2022/06/17 07:45:31;;;;;;;3.78;1.40;;;22.20;90.00;;;;;;5015416;28;20473;-86
2022/06/17 07:47:57;;;;;;;3.10;1.35;;;22.30;90.00;;;;;;5015369;28;20029;-86
2022/06/17 07:50:30;;;;;;;5.75;1.55;;;22.30;90.10;;;;;;5015410;28;20493;-87
2022/06/17 07:52:56;;;;;;;2.40;1.23;;;22.30;90.10;;;;;;5015418;28;20044;-86
2022/06/17 07:55:22;;;;;;;2.40;1.02;;;22.30;90.10;;;;;;5015230;28;20484;-86
2022/06/17 07:57:49;;;;;;;2.55;1.20;;;22.30;90.10;;;;;;5015331;28;20028;-86
2022/06/17 08:00:31;;;;;;;4.38;1.70;;;22.40;90.10;;;;;;5015163;28;20075;-87
2022/06/17 08:02:57;;;;;;;5.63;1.60;;;22.30;90.00;;;;;;5015283;28;20548;-86
2022/06/17 08:05:23;;;;;;;7.47;1.45;;;22.30;90.00;;;;;;5032994;28;20109;-86
2022/06/17 08:07:53;;;;;;;8.88;1.30;;;22.40;90.10;;;;;;5035956;28;20466;-86
2022/06/17 08:10:22;;;;;;;5.40;1.50;;;22.40;89.70;;;;;;5019284;28;20030;-86
2022/06/17 08:12:48;;;;;;;4.15;1.50;;;22.40;89.90;;;;;;5036979;28;20025;-86
2022/06/17 08:15:15;;;;;;;2.25;1.30;;;22.50;90.00;;;;;;5019201;28;20025;-87
2022/06/17 08:17:44;;;;;;;3.55;1.30;;;22.40;90.00;;;;;;5019906;28;20155;-86
2022/06/17 08:20:30;;;;;;;3.83;1.27;;;22.50;90.00;;;;;;5037151;28;20018;-86
2022/06/17 08:22:56;;;;;;;2.83;1.20;;;22.50;89.80;;;;;;5019107;28;20022;-86
2022/06/17 08:25:22;;;;;;;5.20;1.50;;;22.50;89.80;;;;;;5019281;28;20034;-86
2022/06/17 08:27:51;;;;;;;3.17;1.40;;;22.50;89.80;;;;;;5036791;28;20033;-86
2022/06/17 08:30:19;;;;;;;1.92;1.40;;;22.50;89.70;;;;;;5018876;28;20064;-86
2022/06/17 08:32:45;;;;;;;4.00;1.45;;;22.50;89.80;;;;;;5036558;28;20031;-86
2022/06/17 08:35:15;;;;;;;3.88;1.42;;;22.60;89.90;;;;;;5018960;28;20120;-86
2022/06/17 08:37:42;;;;;;;5.43;1.20;;;22.60;89.90;;;;;;5019090;28;20051;-86
2022/06/17 08:40:15;;;;;;;3.75;1.52;;;22.60;89.70;;;;;;5029723;28;20439;-86
2022/06/17 08:42:58;;;;;;;2.05;1.50;;;22.60;89.50;;;;;;5038521;28;20028;-86
2022/06/17 08:45:35;;;;;;;4.60;1.30;;;22.70;89.60;;;;;;5038528;28;20120;-87
2022/06/17 08:48:18;;;;;;;1.50;1.20;;;22.70;89.70;;;;;;5038445;28;20560;-87
2022/06/17 08:50:58;;;;;;;2.38;1.10;;;22.70;89.60;;;;;;5056269;28;20103;-86
2022/06/17 08:53:37;;;;;;;2.55;1.20;;;22.70;89.50;;;;;;5056181;28;20044;-86
2022/06/17 08:56:12;;;;;;;3.03;1.40;;;22.80;89.50;;;;;;5056387;28;20029;-86
2022/06/17 08:58:59;;;;;;;4.72;1.35;;;22.80;89.50;;;;;;5038233;28;20419;-86
2022/06/17 09:01:48;;;;;;;2.40;1.45;;;22.80;89.30;;;;;;5056085;28;20017;-87
2022/06/17 09:04:20;;;;;;;6.53;1.35;;;22.80;89.30;;;;;;5017129;28;20033;-86
2022/06/17 09:07:27;;;;;;;3.65;1.13;;;22.80;88.70;;;;;;5038098;28;20059;-87
2022/06/17 09:10:15;;;;;;;7.50;1.40;;;22.90;89.10;;;;;;5038073;28;20476;-86
2022/06/17 09:12:51;;;;;;;2.40;1.15;;;22.90;89.20;;;;;;5037930;28;20108;-87
2022/06/17 09:15:31;;;;;;;2.15;1.27;;;22.90;89.10;;;;;;5037865;28;20473;-87
2022/06/17 09:18:18;;;;;;;3.58;1.45;;;22.90;88.70;;;;;;5055965;28;20048;-87
2022/06/17 09:20:46;;;;;;;2.20;1.20;;;22.90;88.80;;;;;;5037798;28;20483;-87
2022/06/17 09:23:18;;;;;;;2.75;1.15;;;22.90;88.90;;;;;;5055634;28;20480;-87
2022/06/17 09:25:46;;;;;;;2.40;1.20;;;22.90;88.70;;;;;;5037798;28;20025;-87
2022/06/17 09:28:25;;;;;;;3.05;1.02;;;22.90;88.90;;;;;;5037715;28;20036;-86
2022/06/17 09:31:09;;;;;;;3.67;1.50;;;23.00;88.80;;;;;;5037618;28;20031;-87
2022/06/17 09:33:45;;;;;;;4.85;1.33;;;23.00;88.70;;;;;;5037808;28;20025;-87
2022/06/17 09:36:22;;;;;;;2.53;1.30;;;23.00;88.70;;;;;;5055372;28;20416;-87
2022/06/17 09:38:54;;;;;;;8.20;1.50;;;23.00;88.60;;;;;;5037863;28;20029;-87
2022/06/17 09:41:34;;;;;;;2.28;1.10;;;23.00;88.40;;;;;;5036296;28;20056;-87
2022/06/17 09:44:10;;;;;;;2.30;1.30;;;23.00;88.50;;;;;;5035436;28;20080;-87
2022/06/17 09:46:49;;;;;;;2.67;0.95;;;23.10;88.50;;;;;;5035608;28;20049;-87
2022/06/17 09:49:47;;;;;;;2.67;1.48;;;23.10;88.50;;;;;;5034059;28;20369;-87
2022/06/17 09:52:36;;;;;;;2.45;1.20;;;23.10;88.30;;;;;;5035517;28;20499;-87
2022/06/17 09:55:33;;;;;;;1.77;1.17;;;23.10;88.20;;;;;;5017455;28;20022;-87
2022/06/17 09:58:11;;;;;;;2.70;1.20;;;23.20;88.20;;;;;;5017225;28;20022;-87
2022/06/17 10:00:51;;;;;;;2.03;1.00;;;23.20;88.00;;;;;;5035332;28;20025;-87
2022/06/17 10:03:35;;;;;;;3.35;1.10;;;23.20;87.90;;;;;;5017288;28;20112;-87
2022/06/17 10:06:05;;;;;;;2.00;1.23;;;23.20;87.60;;;;;;5035257;28;20032;-87
2022/06/17 10:08:49;;;;;;;1.17;1.05;;;23.20;87.90;;;;;;5017226;28;20032;-87
2022/06/17 10:11:32;;;;;;;2.25;1.00;;;23.20;87.70;;;;;;5017261;28;20022;-87
2022/06/17 10:14:22;;;;;;;3.40;1.05;;;23.20;87.70;;;;;;5017164;28;20029;-87
2022/06/17 10:19:53;;;;;;;2.53;1.20;;;23.20;87.40;;;;;;5035277;28;20024;-88
2022/06/17 10:22:24;;;;;;;3.00;1.10;;;23.30;87.40;;;;;;5016965;28;20242;-86
2022/06/17 10:25:22;;;;;;;2.47;1.17;;;23.30;87.20;;;;;;5034670;28;20501;-87
2022/06/17 10:28:10;;;;;;;2.80;1.00;;;23.30;87.20;;;;;;5025501;28;20040;-87
2022/06/17 10:30:43;;;;;;;2.40;1.20;;;23.30;87.10;;;;;;5034417;28;20399;-86
2022/06/17 10:33:12;;;;;;;3.67;1.10;;;23.40;87.20;;;;;;5034857;28;20484;-87
2022/06/17 10:35:40;;;;;;;2.60;1.23;;;23.40;87.00;;;;;;5016654;28;20030;-87
2022/06/17 10:38:10;;;;;;;2.92;1.25;;;23.40;86.90;;;;;;5016674;28;20048;-87
2022/06/17 10:40:38;;;;;;;2.50;1.00;;;23.40;86.70;;;;;;5034335;28;20050;-87
2022/06/17 10:43:12;;;;;;;2.45;1.20;;;23.40;86.50;;;;;;5034332;28;20040;-86
2022/06/17 10:45:38;;;;;;;;;;;23.50;86.60;;;;;;5016957;28;20030;-86
2022/06/17 10:48:14;;;;;;;1.50;0.95;;;23.50;86.40;;;;;;5016556;28;20352;-86
2022/06/17 10:50:40;;;;;;;2.17;1.17;;;23.50;86.10;;;;;;5034507;28;20029;-87
2022/06/17 10:53:14;;;;;;;3.20;0.85;;;23.50;86.20;;;;;;5016416;28;20032;-87
2022/06/17 10:55:45;;;;;;;7.20;1.13;;;23.60;86.30;;;;;;5016303;28;20121;-86
2022/06/17 10:58:33;;;;;;;3.50;1.05;;;23.60;86.20;;;;;;5034052;28;20406;-87
2022/06/17 11:01:06;;;;;;;1.88;1.00;;;23.60;85.90;;;;;;5034011;28;20020;-87
2022/06/17 11:03:38;;;;;;;1.88;1.00;;;23.60;85.90;;;;;;5016290;28;20201;-87
2022/06/17 11:06:13;;;;;;;3.70;1.00;;;23.70;85.90;;;;;;5016229;28;20025;-87
2022/06/17 11:09:01;;;;;;;1.83;1.10;;;23.60;85.90;;;;;;5034231;28;20025;-87
2022/06/17 11:12:03;;;;;;;2.67;0.90;;;23.70;86.00;;;;;;5016293;28;20056;-87
2022/06/17 11:14:46;;;;;;;2.67;1.20;;;23.70;85.80;;;;;;5015974;28;20112;-87
2022/06/17 11:17:33;;;;;;;5.00;1.17;;;23.70;85.80;;;;;;5016037;28;20107;-86
2022/06/17 11:20:05;;;;;;;2.08;1.15;;;23.70;85.90;;;;;;5033660;28;20119;-87
2022/06/17 11:22:38;;;;;;;3.50;1.27;;;23.70;85.60;;;;;;5015953;28;20021;-87
2022/06/17 11:25:29;;;;;;;2.15;1.13;;;23.80;85.30;;;;;;5015872;28;20029;-87
2022/06/17 11:27:58;;;;;;;1.55;0.95;;;23.80;85.30;;;;;;5015952;28;20033;-86
2022/06/17 11:30:26;;;;;;;2.63;0.98;;;23.80;85.30;;;;;;5033499;28;20025;-86
2022/06/17 11:32:53;;;;;;;4.82;1.00;;;23.80;85.40;;;;;;5016180;28;20060;-87
2022/06/17 11:35:27;;;;;;;3.55;1.20;;;23.80;84.80;;;;;;5015709;28;20117;-86
2022/06/17 11:37:55;;;;;;;1.73;0.90;;;23.80;84.80;;;;;;5015742;28;20032;-86
2022/06/17 11:40:28;;;;;;;2.03;1.10;;;23.80;84.30;;;;;;5033020;28;20405;-87
2022/06/17 11:43:04;;;;;;;1.70;1.00;;;23.80;84.90;;;;;;5015131;28;20029;-86
2022/06/17 11:45:42;;;;;;;2.53;1.05;;;23.90;84.60;;;;;;5033418;28;20029;-86
2022/06/17 11:48:15;;;;;;;5.63;1.00;;;23.90;84.20;;;;;;5033358;28;20469;-87
2022/06/17 11:50:58;;;;;;;2.17;1.08;;;23.90;84.00;;;;;;5015736;28;20075;-87
2022/06/17 11:53:25;;;;;;;2.35;1.00;;;23.90;84.40;;;;;;5015506;28;20030;-87
2022/06/17 11:55:51;;;;;;;2.15;1.00;;;23.90;84.50;;;;;;5015400;28;20120;-87
2022/06/17 11:58:18;;;;;;;1.83;1.00;;;23.90;84.40;;;;;;5015452;28;20105;-86
2022/06/17 12:00:51;;;;;;;2.00;1.00;;;23.90;84.30;;;;;;5015707;28;20032;-86
2022/06/17 12:03:39;;;;;;;2.15;1.10;;;23.90;84.60;;;;;;5015449;28;20389;-86
2022/06/17 12:06:06;;;;;;;1.35;0.88;;;23.90;84.30;;;;;;5015449;28;20057;-86
2022/06/17 12:08:41;;;;;;;3.60;1.08;;;23.90;84.80;;;;;;5015319;28;20450;-87
2022/06/17 12:11:19;;;;;;;1.83;0.95;;;23.90;84.80;;;;;;5015230;28;20025;-87
2022/06/17 12:13:54;;;;;;;1.65;0.93;;;24.00;85.00;;;;;;5015277;28;20485;-86
2022/06/17 12:16:38;;;;;;;1.75;0.88;;;24.00;85.00;;;;;;5015163;28;20049;-86
2022/06/17 12:19:10;;;;;;;2.50;1.07;;;23.90;84.80;;;;;;5033208;28;20099;-86
2022/06/17 12:21:55;;;;;;;5.13;1.08;;;24.00;85.10;;;;;;5032845;28;20607;-87
2022/06/17 12:24:42;;;;;;;1.42;1.00;;;24.00;85.00;;;;;;5015259;28;20025;-86
2022/06/17 12:27:16;;;;;;;1.30;0.88;;;24.00;84.90;;;;;;5015297;28;20071;-86
2022/06/17 12:30:20;;;;;;;2.53;1.00;;;24.10;84.80;;;;;;5015116;28;20031;-86
2022/06/17 12:33:06;;;;;;;6.05;1.13;;;24.10;84.90;;;;;;4966387;28;20053;-88
2022/06/17 12:35:38;;;;;;;2.38;1.05;;;24.10;84.80;;;;;;5015056;28;20025;-87
2022/06/17 12:38:41;;;;;;;6.50;1.13;;;24.10;84.50;;;;;;5015079;28;20365;-87
2022/06/17 12:41:10;;;;;;;1.20;1.00;;;24.20;84.20;;;;;;5031820;28;20099;-87
2022/06/17 12:43:59;;;;;;;1.90;1.20;;;24.20;84.10;;;;;;5034861;28;20021;-87
2022/06/17 12:46:40;;;;;;;3.30;1.00;;;24.30;84.10;;;;;;5034758;28;20032;-87
2022/06/17 12:55:29;;;;;;;1.50;0.90;;;24.50;83.50;;;;;;5056793;28;20063;-88
2022/06/17 12:58:13;;;;;;;2.40;0.90;;;24.50;83.30;;;;;;5055735;28;20464;-87
2022/06/17 13:00:47;;;;;;;2.67;0.80;;;24.70;82.20;;;;;;5038388;28;20029;-87
2022/06/17 13:03:36;;;;;;;2.78;1.10;;;24.70;82.60;;;;;;5038258;28;20132;-88
2022/06/17 13:06:21;;;;;;;1.38;0.95;;;24.80;82.40;;;;;;5038129;28;20500;-88
2022/06/17 13:08:52;;;;;;;1.55;0.80;;;24.90;81.30;;;;;;5038181;28;20393;-88
2022/06/17 13:11:56;;;;;;;1.95;1.00;;;25.00;81.30;;;;;;5038065;28;20051;-87
2022/06/17 13:14:36;;;;;;;2.38;0.95;;;25.10;81.10;;;;;;4958790;28;20030;-87
2022/06/17 13:17:09;;;;;;;1.42;0.80;;;25.20;81.00;;;;;;4975281;28;20042;-87
2022/06/17 13:19:43;;;;;;;1.27;0.75;;;25.40;80.70;;;;;;5024907;28;20033;-87
2022/06/17 13:22:17;;;;;;;1.35;0.80;;;25.50;80.10;;;;;;5055994;28;20021;-88
2022/06/17 13:25:02;;;;;;;1.75;0.90;;;25.60;80.00;;;;;;5055850;28;20037;-87
2022/06/17 13:27:36;;;;;;;1.67;0.85;;;25.60;79.20;;;;;;5055829;28;20052;-87
2022/06/17 13:30:25;;;;;;;2.22;0.80;;;25.80;79.40;;;;;;5037875;28;20025;-87
2022/06/17 13:33:03;;;;;;;1.75;0.80;;;25.80;79.20;;;;;;5037915;28;20032;-88
2022/06/17 13:35:38;;;;;;;1.85;0.90;;;25.90;79.10;;;;;;5055738;28;20029;-88
2022/06/17 13:38:14;;;;;;;2.33;1.00;;;26.00;79.00;;;;;;5037799;28;20017;-88
2022/06/17 13:40:52;;;;;;;1.33;0.82;;;26.00;78.60;;;;;;5037509;28;20041;-88
2022/06/17 13:43:22;;;;;;;0.82;0.70;;;26.10;78.40;;;;;;5037739;28;20024;-88
2022/06/17 13:45:57;;;;;;;1.70;0.82;;;26.10;78.20;;;;;;5055750;28;20027;-87
2022/06/17 13:48:33;;;;;;;4.60;1.00;;;26.20;78.30;;;;;;5037867;28;20492;-89
2022/06/17 13:51:19;;;;;;;1.33;0.70;;;26.20;78.30;;;;;;5037582;28;20031;-87
2022/06/17 13:54:31;;;;;;;2.42;0.80;;;26.10;78.20;;;;;;5037598;28;20033;-88
2022/06/17 13:57:08;;;;;;;1.77;0.70;;;26.30;77.60;;;;;;4958412;28;20518;-87
2022/06/17 13:59:42;;;;;;;2.90;0.70;;;26.30;77.90;;;;;;4974484;28;20411;-87
2022/06/17 14:02:13;;;;;;;2.00;0.90;;;26.40;77.90;;;;;;5026672;28;20182;-88
2022/06/17 14:05:01;;;;;;;2.03;0.70;;;26.40;77.70;;;;;;5036500;28;20029;-88
2022/06/17 14:07:48;;;;;;;1.42;0.77;;;26.20;78.00;;;;;;5037261;28;20021;-88
2022/06/17 14:10:26;;;;;;;2.20;0.70;;;26.20;78.20;;;;;;5055065;28;20033;-87
2022/06/17 14:12:55;;;;;;;0.90;0.70;;;26.10;78.30;;;;;;5037289;28;20025;-87
2022/06/17 14:15:52;;;;;;;1.38;0.70;;;26.20;78.50;;;;;;5036940;28;20029;-88
2022/06/17 14:18:27;;;;;;;2.55;0.55;;;26.10;78.40;;;;;;5053684;28;20479;-87
2022/06/17 14:21:14;;;;;;;1.38;0.80;;;26.20;78.10;;;;;;5036996;28;20373;-88
2022/06/17 14:23:45;;;;;;;2.88;1.10;;;26.10;78.50;;;;;;5036893;28;20435;-87
2022/06/17 14:26:12;;;;;;;1.20;0.75;;;26.10;78.50;;;;;;5054754;28;20079;-87